sensor_id;sensor_type;location;lat;lon;timestamp;pressure;altitude;pressure_sealevel;temperature;humidity
5777;BME280;2914;42.668;23.346;2023-01-29T00:01:19;94580.09;;;0.98;100.00
5777;BME280;2914;42.668;23.346;2023-01-29T00:03:50;94582.53;;;0.86;100.00
5777;BME280;2914;42.668;23.346;2023-01-29T00:06:19;94582.18;;;0.92;100.00
5777;BME280;2914;42.668;23.346;2023-01-29T00:08:50;94584.08;;;0.97;100.00
5777;BME280;2914;42.668;23.346;2023-01-29T00:11:19;94593.85;;;1.00;100.00
5777;BME280;2914;42.668;23.346;2023-01-29T00:13:48;94595.23;;;0.99;100.00
5777;BME280;2914;42.668;23.346;2023-01-29T00:16:17;94596.23;;;0.96;100.00
5777;BME280;2914;42.668;23.346;2023-01-29T00:18:46;94601.44;;;0.96;100.00
5777;BME280;2914;42.668;23.346;2023-01-29T00:21:17;94597.98;;;0.96;100.00
5777;BME280;2914;42.668;23.346;2023-01-29T00:23:49;94595.92;;;1.10;100.00
5777;BME280;2914;42.668;23.346;2023-01-29T00:26:19;94601.20;;;1.08;100.00
5777;BME280;2914;42.668;23.346;2023-01-29T00:28:48;94603.72;;;1.10;100.00
5777;BME280;2914;42.668;23.346;2023-01-29T00:31:19;94606.70;;;1.11;100.00
5777;BME280;2914;42.668;23.346;2023-01-29T00:33:49;94609.72;;;1.19;100.00
5777;BME280;2914;42.668;23.346;2023-01-29T00:36:19;94609.98;;;1.14;100.00
5777;BME280;2914;42.668;23.346;2023-01-29T00:41:40;94605.83;;;1.35;100.00
5777;BME280;2914;42.668;23.346;2023-01-29T00:44:27;94613.88;;;1.14;100.00
5777;BME280;2914;42.668;23.346;2023-01-29T00:47:14;94610.34;;;1.31;100.00
5777;BME280;2914;42.668;23.346;2023-01-29T00:50:00;94614.45;;;1.35;100.00
5777;BME280;2914;42.668;23.346;2023-01-29T00:52:29;94608.84;;;1.27;100.00
5777;BME280;2914;42.668;23.346;2023-01-29T00:54:59;94612.30;;;1.28;100.00
5777;BME280;2914;42.668;23.346;2023-01-29T00:57:29;94610.91;;;1.29;100.00
5777;BME280;2914;42.668;23.346;2023-01-29T00:59:59;94606.36;;;1.33;100.00
5777;BME280;2914;42.668;23.346;2023-01-29T01:02:28;94608.95;;;1.33;100.00
5777;BME280;2914;42.668;23.346;2023-01-29T01:05:17;94607.89;;;1.21;100.00
5777;BME280;2914;42.668;23.346;2023-01-29T01:07:47;94608.17;;;1.08;100.00
5777;BME280;2914;42.668;23.346;2023-01-29T01:10:18;94598.25;;;1.07;100.00
5777;BME280;2914;42.668;23.346;2023-01-29T01:12:50;94603.17;;;0.96;100.00
5777;BME280;2914;42.668;23.346;2023-01-29T01:15:20;94603.95;;;0.98;100.00
5777;BME280;2914;42.668;23.346;2023-01-29T01:17:53;94606.07;;;0.98;100.00
5777;BME280;2914;42.668;23.346;2023-01-29T01:20:23;94600.01;;;0.91;100.00
5777;BME280;2914;42.668;23.346;2023-01-29T01:22:54;94597.42;;;0.82;100.00
5777;BME280;2914;42.668;23.346;2023-01-29T01:25:25;94599.03;;;0.84;100.00
5777;BME280;2914;42.668;23.346;2023-01-29T01:27:55;94596.94;;;0.91;100.00
5777;BME280;2914;42.668;23.346;2023-01-29T01:30:26;94595.39;;;0.80;100.00
5777;BME280;2914;42.668;23.346;2023-01-29T01:32:55;94603.75;;;0.69;100.00
5777;BME280;2914;42.668;23.346;2023-01-29T01:35:24;94592.66;;;0.74;100.00
5777;BME280;2914;42.668;23.346;2023-01-29T01:37:54;94586.09;;;0.67;100.00
5777;BME280;2914;42.668;23.346;2023-01-29T01:40:24;94602.62;;;0.66;100.00
5777;BME280;2914;42.668;23.346;2023-01-29T01:42:55;94600.62;;;0.62;100.00
5777;BME280;2914;42.668;23.346;2023-01-29T01:45:27;94599.03;;;0.60;100.00
5777;BME280;2914;42.668;23.346;2023-01-29T01:48:00;94597.78;;;0.67;100.00
5777;BME280;2914;42.668;23.346;2023-01-29T01:53:11;94605.57;;;0.67;100.00
5777;BME280;2914;42.668;23.346;2023-01-29T01:55:44;94601.45;;;0.63;100.00
5777;BME280;2914;42.668;23.346;2023-01-29T01:58:17;94608.67;;;0.58;100.00
5777;BME280;2914;42.668;23.346;2023-01-29T02:00:46;94607.16;;;0.54;100.00
5777;BME280;2914;42.668;23.346;2023-01-29T02:03:15;94613.01;;;0.57;100.00
5777;BME280;2914;42.668;23.346;2023-01-29T02:06:03;94609.80;;;0.61;100.00
5777;BME280;2914;42.668;23.346;2023-01-29T02:08:53;94617.89;;;0.63;100.00
5777;BME280;2914;42.668;23.346;2023-01-29T02:11:40;94618.20;;;0.66;100.00
5777;BME280;2914;42.668;23.346;2023-01-29T02:14:09;94617.64;;;0.68;100.00
5777;BME280;2914;42.668;23.346;2023-01-29T02:16:39;94610.41;;;0.57;100.00
5777;BME280;2914;42.668;23.346;2023-01-29T02:19:11;94607.42;;;0.65;100.00
5777;BME280;2914;42.668;23.346;2023-01-29T02:21:56;94614.00;;;0.79;100.00
5777;BME280;2914;42.668;23.346;2023-01-29T02:24:35;94619.50;;;0.82;100.00
5777;BME280;2914;42.668;23.346;2023-01-29T02:29:53;94615.73;;;0.88;100.00
5777;BME280;2914;42.668;23.346;2023-01-29T02:32:27;94627.20;;;0.83;100.00
5777;BME280;2914;42.668;23.346;2023-01-29T02:35:02;94624.61;;;0.83;100.00
5777;BME280;2914;42.668;23.346;2023-01-29T02:37:52;94627.64;;;0.67;100.00
5777;BME280;2914;42.668;23.346;2023-01-29T02:40:25;94628.63;;;0.73;100.00
5777;BME280;2914;42.668;23.346;2023-01-29T02:43:00;94632.27;;;0.78;100.00
5777;BME280;2914;42.668;23.346;2023-01-29T02:45:33;94631.74;;;0.80;100.00
5777;BME280;2914;42.668;23.346;2023-01-29T02:48:03;94635.42;;;0.76;100.00
5777;BME280;2914;42.668;23.346;2023-01-29T02:50:36;94633.27;;;0.75;100.00
5777;BME280;2914;42.668;23.346;2023-01-29T02:53:07;94644.81;;;0.78;100.00
5777;BME280;2914;42.668;23.346;2023-01-29T02:55:39;94634.13;;;0.76;100.00
5777;BME280;2914;42.668;23.346;2023-01-29T02:58:12;94640.80;;;0.89;100.00
5777;BME280;2914;42.668;23.346;2023-01-29T03:00:44;94640.53;;;0.93;100.00
5777;BME280;2914;42.668;23.346;2023-01-29T03:03:17;94633.17;;;1.01;100.00
5777;BME280;2914;42.668;23.346;2023-01-29T03:08:30;94636.07;;;1.04;100.00
5777;BME280;2914;42.668;23.346;2023-01-29T03:11:06;94631.75;;;0.96;100.00
5777;BME280;2914;42.668;23.346;2023-01-29T03:13:41;94640.61;;;1.00;100.00
5777;BME280;2914;42.668;23.346;2023-01-29T03:16:15;94640.39;;;1.12;100.00
5777;BME280;2914;42.668;23.346;2023-01-29T03:18:49;94641.28;;;1.20;100.00
5777;BME280;2914;42.668;23.346;2023-01-29T03:21:23;94638.98;;;1.23;100.00
5777;BME280;2914;42.668;23.346;2023-01-29T03:24:12;94642.69;;;1.10;100.00
5777;BME280;2914;42.668;23.346;2023-01-29T03:27:03;94645.22;;;1.27;100.00
5777;BME280;2914;42.668;23.346;2023-01-29T03:29:53;94644.11;;;1.40;100.00
5777;BME280;2914;42.668;23.346;2023-01-29T03:32:41;94651.20;;;1.21;100.00
5777;BME280;2914;42.668;23.346;2023-01-29T03:35:11;94642.76;;;1.17;100.00
5777;BME280;2914;42.668;23.346;2023-01-29T03:37:45;94648.06;;;1.07;100.00
5777;BME280;2914;42.668;23.346;2023-01-29T03:45:37;94644.14;;;1.15;100.00
5777;BME280;2914;42.668;23.346;2023-01-29T03:48:12;94645.87;;;1.24;100.00
5777;BME280;2914;42.668;23.346;2023-01-29T03:50:45;94644.98;;;1.32;100.00
5777;BME280;2914;42.668;23.346;2023-01-29T03:53:19;94638.25;;;1.44;100.00
5777;BME280;2914;42.668;23.346;2023-01-29T03:55:51;94647.29;;;1.29;100.00
5777;BME280;2914;42.668;23.346;2023-01-29T03:58:24;94638.14;;;1.06;100.00
5777;BME280;2914;42.668;23.346;2023-01-29T04:00:56;94642.76;;;1.17;100.00
5777;BME280;2914;42.668;23.346;2023-01-29T04:03:28;94645.59;;;1.12;100.00
5777;BME280;2914;42.668;23.346;2023-01-29T04:08:44;94646.43;;;1.29;100.00
5777;BME280;2914;42.668;23.346;2023-01-29T04:11:17;94644.09;;;1.24;100.00
5777;BME280;2914;42.668;23.346;2023-01-29T04:13:48;94649.05;;;1.13;100.00
5777;BME280;2914;42.668;23.346;2023-01-29T04:16:21;94652.47;;;1.13;100.00
5777;BME280;2914;42.668;23.346;2023-01-29T04:18:51;94648.75;;;1.10;100.00
5777;BME280;2914;42.668;23.346;2023-01-29T04:21:21;94653.59;;;1.00;100.00
5777;BME280;2914;42.668;23.346;2023-01-29T04:23:51;94654.77;;;1.11;100.00
5777;BME280;2914;42.668;23.346;2023-01-29T04:26:28;94655.19;;;1.19;100.00
5777;BME280;2914;42.668;23.346;2023-01-29T04:29:19;94653.06;;;1.18;100.00
5777;BME280;2914;42.668;23.346;2023-01-29T04:34:32;94661.38;;;1.25;100.00
5777;BME280;2914;42.668;23.346;2023-01-29T04:39:47;94658.27;;;1.18;100.00
5777;BME280;2914;42.668;23.346;2023-01-29T04:42:21;94662.27;;;1.08;100.00
5777;BME280;2914;42.668;23.346;2023-01-29T04:44:55;94663.13;;;1.09;100.00
5777;BME280;2914;42.668;23.346;2023-01-29T04:47:26;94660.96;;;1.08;100.00
5777;BME280;2914;42.668;23.346;2023-01-29T04:50:00;94664.12;;;1.06;100.00
5777;BME280;2914;42.668;23.346;2023-01-29T04:52:33;94665.33;;;1.08;100.00
5777;BME280;2914;42.668;23.346;2023-01-29T04:55:04;94663.69;;;1.14;100.00
5777;BME280;2914;42.668;23.346;2023-01-29T04:57:39;94667.39;;;1.26;100.00
5777;BME280;2914;42.668;23.346;2023-01-29T05:00:11;94666.45;;;1.20;100.00
5777;BME280;2914;42.668;23.346;2023-01-29T05:02:43;94670.34;;;1.20;100.00
5777;BME280;2914;42.668;23.346;2023-01-29T05:05:15;94664.50;;;1.23;100.00
5777;BME280;2914;42.668;23.346;2023-01-29T05:07:46;94669.66;;;1.16;100.00
5777;BME280;2914;42.668;23.346;2023-01-29T05:10:18;94674.34;;;1.09;100.00
5777;BME280;2914;42.668;23.346;2023-01-29T05:12:50;94665.42;;;1.06;100.00
5777;BME280;2914;42.668;23.346;2023-01-29T05:15:22;94672.08;;;0.78;100.00
5777;BME280;2914;42.668;23.346;2023-01-29T05:17:53;94677.98;;;0.89;100.00
5777;BME280;2914;42.668;23.346;2023-01-29T05:20:23;94675.08;;;0.95;100.00
5777;BME280;2914;42.668;23.346;2023-01-29T05:22:52;94679.28;;;0.89;100.00
5777;BME280;2914;42.668;23.346;2023-01-29T05:25:25;94683.83;;;1.01;100.00
5777;BME280;2914;42.668;23.346;2023-01-29T05:27:54;94683.13;;;0.91;100.00
5777;BME280;2914;42.668;23.346;2023-01-29T05:30:35;94677.28;;;0.94;100.00
5777;BME280;2914;42.668;23.346;2023-01-29T05:33:11;94687.59;;;0.96;100.00
5777;BME280;2914;42.668;23.346;2023-01-29T05:38:16;94698.54;;;1.18;100.00
5777;BME280;2914;42.668;23.346;2023-01-29T05:43:25;94697.20;;;1.11;100.00
5777;BME280;2914;42.668;23.346;2023-01-29T05:45:55;94695.47;;;1.19;100.00
5777;BME280;2914;42.668;23.346;2023-01-29T05:48:25;94698.67;;;1.24;100.00
5777;BME280;2914;42.668;23.346;2023-01-29T05:50:59;94696.07;;;1.24;100.00
5777;BME280;2914;42.668;23.346;2023-01-29T05:53:29;94700.05;;;1.23;100.00
5777;BME280;2914;42.668;23.346;2023-01-29T05:56:01;94699.45;;;1.17;100.00
5777;BME280;2914;42.668;23.346;2023-01-29T05:58:33;94702.05;;;1.17;100.00
5777;BME280;2914;42.668;23.346;2023-01-29T06:01:09;94702.44;;;1.18;100.00
5777;BME280;2914;42.668;23.346;2023-01-29T06:03:39;94703.44;;;1.16;100.00
5777;BME280;2914;42.668;23.346;2023-01-29T06:08:46;94712.48;;;1.09;100.00
5777;BME280;2914;42.668;23.346;2023-01-29T06:13:54;94718.77;;;1.29;100.00
5777;BME280;2914;42.668;23.346;2023-01-29T06:16:23;94723.23;;;1.10;100.00
5777;BME280;2914;42.668;23.346;2023-01-29T06:18:55;94727.16;;;1.01;100.00
5777;BME280;2914;42.668;23.346;2023-01-29T06:21:24;94726.91;;;1.14;100.00
5777;BME280;2914;42.668;23.346;2023-01-29T06:23:53;94728.03;;;1.17;100.00
5777;BME280;2914;42.668;23.346;2023-01-29T06:26:23;94729.30;;;1.26;100.00
5777;BME280;2914;42.668;23.346;2023-01-29T06:31:29;94734.36;;;1.29;100.00
5777;BME280;2914;42.668;23.346;2023-01-29T06:36:45;94748.95;;;1.48;100.00
5777;BME280;2914;42.668;23.346;2023-01-29T06:39:14;94744.45;;;1.43;100.00
5777;BME280;2914;42.668;23.346;2023-01-29T06:41:44;94746.62;;;1.34;100.00
5777;BME280;2914;42.668;23.346;2023-01-29T06:44:13;94750.16;;;1.33;100.00
5777;BME280;2914;42.668;23.346;2023-01-29T06:49:26;94750.94;;;1.51;100.00
5777;BME280;2914;42.668;23.346;2023-01-29T06:51:55;94757.01;;;1.43;100.00
5777;BME280;2914;42.668;23.346;2023-01-29T06:54:24;94755.28;;;1.35;100.00
5777;BME280;2914;42.668;23.346;2023-01-29T06:56:53;94772.34;;;1.32;100.00
5777;BME280;2914;42.668;23.346;2023-01-29T06:59:22;94770.09;;;1.42;100.00
5777;BME280;2914;42.668;23.346;2023-01-29T07:01:51;94768.88;;;1.40;100.00
5777;BME280;2914;42.668;23.346;2023-01-29T07:04:21;94769.62;;;1.42;100.00
5777;BME280;2914;42.668;23.346;2023-01-29T07:06:50;94765.76;;;1.33;100.00
5777;BME280;2914;42.668;23.346;2023-01-29T07:09:19;94772.87;;;1.30;100.00
5777;BME280;2914;42.668;23.346;2023-01-29T07:11:48;94777.32;;;1.28;100.00
5777;BME280;2914;42.668;23.346;2023-01-29T07:14:17;94779.28;;;1.40;100.00
5777;BME280;2914;42.668;23.346;2023-01-29T07:16:48;94772.61;;;1.34;100.00
5777;BME280;2914;42.668;23.346;2023-01-29T07:19:20;94776.89;;;1.44;100.00
5777;BME280;2914;42.668;23.346;2023-01-29T07:21:52;94789.55;;;1.50;100.00
5777;BME280;2914;42.668;23.346;2023-01-29T07:24:22;94787.95;;;1.48;100.00
5777;BME280;2914;42.668;23.346;2023-01-29T07:26:51;94789.80;;;1.46;100.00
5777;BME280;2914;42.668;23.346;2023-01-29T07:31:59;94785.22;;;1.42;100.00
5777;BME280;2914;42.668;23.346;2023-01-29T07:34:30;94790.11;;;1.48;100.00
5777;BME280;2914;42.668;23.346;2023-01-29T07:37:00;94790.15;;;1.72;100.00
5777;BME280;2914;42.668;23.346;2023-01-29T07:39:29;94788.14;;;1.77;100.00
5777;BME280;2914;42.668;23.346;2023-01-29T07:41:58;94800.42;;;1.66;100.00
5777;BME280;2914;42.668;23.346;2023-01-29T07:44:29;94786.89;;;1.68;100.00
5777;BME280;2914;42.668;23.346;2023-01-29T07:46:58;94791.66;;;1.76;100.00
5777;BME280;2914;42.668;23.346;2023-01-29T07:49:27;94795.56;;;1.76;100.00
5777;BME280;2914;42.668;23.346;2023-01-29T07:51:56;94797.00;;;1.65;100.00
5777;BME280;2914;42.668;23.346;2023-01-29T07:57:11;94799.72;;;1.71;100.00
5777;BME280;2914;42.668;23.346;2023-01-29T07:59:40;94807.04;;;1.80;100.00
5777;BME280;2914;42.668;23.346;2023-01-29T08:02:10;94801.41;;;1.72;100.00
5777;BME280;2914;42.668;23.346;2023-01-29T08:07:16;94801.06;;;1.62;100.00
5777;BME280;2914;42.668;23.346;2023-01-29T08:09:45;94805.23;;;2.22;100.00
5777;BME280;2914;42.668;23.346;2023-01-29T08:12:14;94803.27;;;2.02;100.00
5777;BME280;2914;42.668;23.346;2023-01-29T08:14:43;94807.53;;;1.71;100.00
5777;BME280;2914;42.668;23.346;2023-01-29T08:17:13;94808.66;;;1.74;100.00
5777;BME280;2914;42.668;23.346;2023-01-29T08:19:42;94817.88;;;1.64;100.00
5777;BME280;2914;42.668;23.346;2023-01-29T08:22:11;94818.80;;;1.63;100.00
5777;BME280;2914;42.668;23.346;2023-01-29T08:24:41;94822.91;;;1.67;100.00
5777;BME280;2914;42.668;23.346;2023-01-29T08:27:10;94813.21;;;1.62;100.00
5777;BME280;2914;42.668;23.346;2023-01-29T08:29:39;94819.14;;;1.73;100.00
5777;BME280;2914;42.668;23.346;2023-01-29T08:32:10;94822.61;;;1.73;100.00
5777;BME280;2914;42.668;23.346;2023-01-29T08:34:39;94825.12;;;1.75;100.00
5777;BME280;2914;42.668;23.346;2023-01-29T08:37:08;94826.77;;;1.76;100.00
5777;BME280;2914;42.668;23.346;2023-01-29T08:39:37;94827.08;;;1.53;100.00
5777;BME280;2914;42.668;23.346;2023-01-29T08:42:06;94828.68;;;1.56;100.00
5777;BME280;2914;42.668;23.346;2023-01-29T08:47:13;94832.75;;;1.78;100.00
5777;BME280;2914;42.668;23.346;2023-01-29T08:49:42;94833.66;;;1.85;100.00
5777;BME280;2914;42.668;23.346;2023-01-29T08:52:11;94838.55;;;1.83;100.00
5777;BME280;2914;42.668;23.346;2023-01-29T08:54:40;94837.55;;;1.85;100.00
5777;BME280;2914;42.668;23.346;2023-01-29T08:57:09;94847.01;;;1.71;100.00
5777;BME280;2914;42.668;23.346;2023-01-29T08:59:38;94844.06;;;2.17;100.00
5777;BME280;2914;42.668;23.346;2023-01-29T09:02:08;94847.17;;;2.24;100.00
5777;BME280;2914;42.668;23.346;2023-01-29T09:07:22;94860.58;;;1.84;100.00
5777;BME280;2914;42.668;23.346;2023-01-29T09:09:51;94861.23;;;1.88;100.00
5777;BME280;2914;42.668;23.346;2023-01-29T09:12:20;94855.42;;;1.92;100.00
5777;BME280;2914;42.668;23.346;2023-01-29T09:17:27;94850.47;;;2.03;100.00
5777;BME280;2914;42.668;23.346;2023-01-29T09:19:56;94843.19;;;1.94;100.00
5777;BME280;2914;42.668;23.346;2023-01-29T09:22:25;94855.91;;;1.82;100.00
5777;BME280;2914;42.668;23.346;2023-01-29T09:24:54;94850.95;;;1.78;100.00
5777;BME280;2914;42.668;23.346;2023-01-29T09:30:01;94851.39;;;1.86;100.00
5777;BME280;2914;42.668;23.346;2023-01-29T09:32:30;94851.77;;;1.87;100.00
5777;BME280;2914;42.668;23.346;2023-01-29T09:34:59;94853.30;;;1.82;100.00
5777;BME280;2914;42.668;23.346;2023-01-29T09:37:28;94853.98;;;1.86;100.00
5777;BME280;2914;42.668;23.346;2023-01-29T09:39:59;94846.66;;;1.85;100.00
5777;BME280;2914;42.668;23.346;2023-01-29T09:42:32;94833.98;;;2.43;100.00
5777;BME280;2914;42.668;23.346;2023-01-29T09:45:03;94844.64;;;2.07;100.00
5777;BME280;2914;42.668;23.346;2023-01-29T09:47:35;94838.84;;;2.01;100.00
5777;BME280;2914;42.668;23.346;2023-01-29T09:50:07;94839.28;;;1.94;100.00
5777;BME280;2914;42.668;23.346;2023-01-29T09:52:39;94833.96;;;1.79;100.00
5777;BME280;2914;42.668;23.346;2023-01-29T09:55:13;94839.42;;;1.91;100.00
5777;BME280;2914;42.668;23.346;2023-01-29T09:57:45;94833.27;;;1.84;100.00
5777;BME280;2914;42.668;23.346;2023-01-29T10:00:19;94828.77;;;1.79;100.00
5777;BME280;2914;42.668;23.346;2023-01-29T10:11:44;94829.59;;;1.80;100.00
5777;BME280;2914;42.668;23.346;2023-01-29T10:17:00;94821.07;;;1.94;100.00
5777;BME280;2914;42.668;23.346;2023-01-29T10:22:20;94818.45;;;1.78;100.00
5777;BME280;2914;42.668;23.346;2023-01-29T10:27:29;94820.14;;;1.70;100.00
5777;BME280;2914;42.668;23.346;2023-01-29T10:32:37;94811.91;;;1.62;100.00
5777;BME280;2914;42.668;23.346;2023-01-29T10:37:52;94803.75;;;1.77;100.00
5777;BME280;2914;42.668;23.346;2023-01-29T10:40:23;94799.67;;;1.80;100.00
5777;BME280;2914;42.668;23.346;2023-01-29T10:45:38;94803.56;;;1.89;100.00
5777;BME280;2914;42.668;23.346;2023-01-29T10:51:28;94798.94;;;1.78;100.00
5777;BME280;2914;42.668;23.346;2023-01-29T10:54:02;94803.37;;;1.76;100.00
5777;BME280;2914;42.668;23.346;2023-01-29T10:59:35;94791.75;;;1.58;100.00
5777;BME280;2914;42.668;23.346;2023-01-29T11:04:51;94792.88;;;1.61;100.00
5777;BME280;2914;42.668;23.346;2023-01-29T11:12:38;94789.81;;;1.62;100.00
5777;BME280;2914;42.668;23.346;2023-01-29T11:18:04;94789.37;;;1.62;100.00
5777;BME280;2914;42.668;23.346;2023-01-29T11:23:26;94776.05;;;1.76;100.00
5777;BME280;2914;42.668;23.346;2023-01-29T11:25:56;94775.61;;;1.76;100.00
5777;BME280;2914;42.668;23.346;2023-01-29T11:28:37;94778.95;;;1.78;100.00
5777;BME280;2914;42.668;23.346;2023-01-29T11:34:12;94773.14;;;1.82;100.00
5777;BME280;2914;42.668;23.346;2023-01-29T11:39:21;94764.14;;;1.72;100.00
5777;BME280;2914;42.668;23.346;2023-01-29T11:44:32;94752.95;;;1.94;100.00
5777;BME280;2914;42.668;23.346;2023-01-29T11:47:17;94740.44;;;1.85;100.00
5777;BME280;2914;42.668;23.346;2023-01-29T11:52:32;94740.44;;;1.85;100.00
5777;BME280;2914;42.668;23.346;2023-01-29T11:57:45;94747.84;;;1.93;100.00
5777;BME280;2914;42.668;23.346;2023-01-29T12:02:59;94740.44;;;2.01;100.00
5777;BME280;2914;42.668;23.346;2023-01-29T12:08:13;94743.13;;;1.99;100.00
5777;BME280;2914;42.668;23.346;2023-01-29T12:10:41;94736.66;;;1.91;100.00
5777;BME280;2914;42.668;23.346;2023-01-29T12:13:24;94740.80;;;1.79;100.00
5777;BME280;2914;42.668;23.346;2023-01-29T12:16:05;94733.76;;;1.65;100.00
5777;BME280;2914;42.668;23.346;2023-01-29T12:21:18;94732.98;;;1.63;100.00
5777;BME280;2914;42.668;23.346;2023-01-29T12:23:51;94737.80;;;1.62;100.00
5777;BME280;2914;42.668;23.346;2023-01-29T12:26:23;94742.54;;;1.78;100.00
5777;BME280;2914;42.668;23.346;2023-01-29T12:28:56;94742.75;;;1.82;100.00
5777;BME280;2914;42.668;23.346;2023-01-29T12:31:31;94740.06;;;1.84;100.00
5777;BME280;2914;42.668;23.346;2023-01-29T12:36:44;94735.63;;;2.02;100.00
5777;BME280;2914;42.668;23.346;2023-01-29T12:42:12;94735.03;;;1.97;100.00
5777;BME280;2914;42.668;23.346;2023-01-29T12:44:44;94744.67;;;1.95;100.00
5777;BME280;2914;42.668;23.346;2023-01-29T12:47:18;94745.44;;;1.97;100.00
5777;BME280;2914;42.668;23.346;2023-01-29T12:52:35;94738.56;;;2.19;100.00
5777;BME280;2914;42.668;23.346;2023-01-29T12:55:07;94740.84;;;2.09;100.00
5777;BME280;2914;42.668;23.346;2023-01-29T12:57:41;94734.23;;;2.03;100.00
5777;BME280;2914;42.668;23.346;2023-01-29T13:00:14;94732.61;;;1.94;100.00
5777;BME280;2914;42.668;23.346;2023-01-29T13:02:48;94742.48;;;2.03;100.00
5777;BME280;2914;42.668;23.346;2023-01-29T13:08:02;94736.63;;;1.83;100.00
5777;BME280;2914;42.668;23.346;2023-01-29T13:13:21;94733.70;;;1.90;100.00
5777;BME280;2914;42.668;23.346;2023-01-29T13:15:49;94729.59;;;1.85;100.00
5777;BME280;2914;42.668;23.346;2023-01-29T13:18:29;94724.33;;;1.78;100.00
5777;BME280;2914;42.668;23.346;2023-01-29T13:20:59;94726.37;;;1.73;100.00
5777;BME280;2914;42.668;23.346;2023-01-29T13:23:32;94737.52;;;1.75;100.00
5777;BME280;2914;42.668;23.346;2023-01-29T13:26:02;94736.06;;;1.62;100.00
5777;BME280;2914;42.668;23.346;2023-01-29T13:28:33;94733.16;;;1.60;100.00
5777;BME280;2914;42.668;23.346;2023-01-29T13:31:22;94731.69;;;1.63;100.00
5777;BME280;2914;42.668;23.346;2023-01-29T13:36:36;94749.43;;;1.79;100.00
5777;BME280;2914;42.668;23.346;2023-01-29T13:39:17;94741.56;;;1.88;100.00
5777;BME280;2914;42.668;23.346;2023-01-29T13:44:24;94747.53;;;2.06;100.00
5777;BME280;2914;42.668;23.346;2023-01-29T13:46:57;94755.55;;;1.94;100.00
5777;BME280;2914;42.668;23.346;2023-01-29T13:49:31;94754.08;;;1.97;100.00
5777;BME280;2914;42.668;23.346;2023-01-29T13:52:15;94762.02;;;1.87;100.00
5777;BME280;2914;42.668;23.346;2023-01-29T13:54:53;94763.41;;;1.85;100.00
5777;BME280;2914;42.668;23.346;2023-01-29T14:00:55;94761.05;;;1.81;100.00
5777;BME280;2914;42.668;23.346;2023-01-29T14:03:56;94762.64;;;1.83;99.88
5777;BME280;2914;42.668;23.346;2023-01-29T14:06:45;94760.11;;;1.66;99.67
5777;BME280;2914;42.668;23.346;2023-01-29T14:15:33;94772.25;;;1.58;99.42
5777;BME280;2914;42.668;23.346;2023-01-29T14:18:30;94765.98;;;1.53;99.05
5777;BME280;2914;42.668;23.346;2023-01-29T14:21:02;94775.86;;;1.47;99.90
5777;BME280;2914;42.668;23.346;2023-01-29T14:23:41;94774.08;;;1.40;99.97
5777;BME280;2914;42.668;23.346;2023-01-29T14:26:21;94769.80;;;1.30;100.00
5777;BME280;2914;42.668;23.346;2023-01-29T14:28:57;94786.42;;;1.28;100.00
5777;BME280;2914;42.668;23.346;2023-01-29T14:31:45;94789.45;;;1.36;100.00
5777;BME280;2914;42.668;23.346;2023-01-29T14:37:01;94788.08;;;1.29;100.00
5777;BME280;2914;42.668;23.346;2023-01-29T14:39:35;94799.33;;;1.29;100.00
5777;BME280;2914;42.668;23.346;2023-01-29T14:45:05;94793.63;;;1.47;100.00
5777;BME280;2914;42.668;23.346;2023-01-29T14:47:57;94798.81;;;1.47;100.00
5777;BME280;2914;42.668;23.346;2023-01-29T14:53:55;94796.87;;;1.35;100.00
5777;BME280;2914;42.668;23.346;2023-01-29T14:59:16;94791.72;;;1.42;100.00
5777;BME280;2914;42.668;23.346;2023-01-29T15:04:29;94797.61;;;1.46;100.00
5777;BME280;2914;42.668;23.346;2023-01-29T15:09:41;94797.30;;;1.59;100.00
5777;BME280;2914;42.668;23.346;2023-01-29T15:12:17;94795.44;;;1.54;100.00
5777;BME280;2914;42.668;23.346;2023-01-29T15:17:36;94793.31;;;1.45;100.00
5777;BME280;2914;42.668;23.346;2023-01-29T15:20:27;94804.23;;;1.51;100.00
5777;BME280;2914;42.668;23.346;2023-01-29T15:22:57;94793.02;;;1.42;100.00
5777;BME280;2914;42.668;23.346;2023-01-29T15:25:28;94789.28;;;1.39;100.00
5777;BME280;2914;42.668;23.346;2023-01-29T15:28:00;94798.47;;;1.38;100.00
5777;BME280;2914;42.668;23.346;2023-01-29T15:33:13;94804.75;;;1.25;100.00
5777;BME280;2914;42.668;23.346;2023-01-29T15:38:26;94805.22;;;1.24;100.00
5777;BME280;2914;42.668;23.346;2023-01-29T15:43:41;94807.98;;;1.12;100.00
5777;BME280;2914;42.668;23.346;2023-01-29T15:48:47;94816.66;;;1.38;100.00
5777;BME280;2914;42.668;23.346;2023-01-29T15:53:57;94804.22;;;1.27;100.00
5777;BME280;2914;42.668;23.346;2023-01-29T15:59:07;94804.44;;;2.51;100.00
5777;BME280;2914;42.668;23.346;2023-01-29T16:04:16;94801.47;;;1.95;100.00
5777;BME280;2914;42.668;23.346;2023-01-29T16:06:48;94819.48;;;1.66;100.00
5777;BME280;2914;42.668;23.346;2023-01-29T16:11:56;94824.04;;;1.45;100.00
5777;BME280;2914;42.668;23.346;2023-01-29T16:14:26;94820.95;;;1.30;100.00
5777;BME280;2914;42.668;23.346;2023-01-29T16:16:56;94832.51;;;1.24;100.00
5777;BME280;2914;42.668;23.346;2023-01-29T16:19:27;94826.84;;;1.25;100.00
5777;BME280;2914;42.668;23.346;2023-01-29T16:21:58;94826.05;;;0.98;100.00
5777;BME280;2914;42.668;23.346;2023-01-29T16:24:29;94835.42;;;1.09;100.00
5777;BME280;2914;42.668;23.346;2023-01-29T16:29:38;94831.45;;;1.20;100.00
5777;BME280;2914;42.668;23.346;2023-01-29T16:34:47;94838.17;;;1.24;100.00
5777;BME280;2914;42.668;23.346;2023-01-29T16:39:59;94835.05;;;1.17;100.00
5777;BME280;2914;42.668;23.346;2023-01-29T16:42:29;94837.48;;;1.20;100.00
5777;BME280;2914;42.668;23.346;2023-01-29T16:47:41;94844.81;;;1.29;100.00
5777;BME280;2914;42.668;23.346;2023-01-29T16:53:16;94839.50;;;1.48;100.00
5777;BME280;2914;42.668;23.346;2023-01-29T16:55:44;94845.39;;;1.43;100.00
5777;BME280;2914;42.668;23.346;2023-01-29T16:58:18;94848.41;;;1.27;100.00
5777;BME280;2914;42.668;23.346;2023-01-29T17:00:50;94843.13;;;1.28;100.00
5777;BME280;2914;42.668;23.346;2023-01-29T17:03:20;94845.70;;;1.37;100.00
5777;BME280;2914;42.668;23.346;2023-01-29T17:08:29;94840.94;;;1.45;100.00
5777;BME280;2914;42.668;23.346;2023-01-29T17:10:59;94841.66;;;1.40;100.00
5777;BME280;2914;42.668;23.346;2023-01-29T17:13:29;94835.60;;;1.40;100.00